Terminal Aerodrome Forecast
Issued by NWS

Home | Current Version | Previous Version | Text Only | Print | Product List | Glossary On
Versions: 1 2 3 4 5 6 7 8 9 10 11 12 13 14 15 16 17 18 19 20 21 22
622
FTUS46 KPDT 231129
TAFPSC
TAF
KPSC 231129Z 2312/2412 VRB04KT P6SM SCT080 BKN110
     FM231800 21010G20KT P6SM -SHRA BKN060 OVC080
     FM232300 24020G30KT P6SM BKN070 OVC090
     FM240600 22008G15KT P6SM SCT090 BKN150=

USA.gov is the U.S. government's official web portal to all federal, state and local government web resources and services.